sensor_id;sensor_type;location;lat;lon;timestamp;pressure;altitude;pressure_sealevel;temperature;humidity
9035;BME280;4552;43.422;24.592;2023-05-19T01:25:29;100094.81;;;13.76;100.00
9035;BME280;4552;43.422;24.592;2023-05-19T01:28:17;100089.44;;;13.44;100.00
9035;BME280;4552;43.422;24.592;2023-05-19T01:30:52;100080.22;;;13.25;100.00
9035;BME280;4552;43.422;24.592;2023-05-19T01:33:21;100077.91;;;13.12;100.00
9035;BME280;4552;43.422;24.592;2023-05-19T01:35:50;100081.28;;;13.18;100.00
9035;BME280;4552;43.422;24.592;2023-05-19T01:38:18;100080.56;;;13.10;100.00
9035;BME280;4552;43.422;24.592;2023-05-19T01:40:47;100078.91;;;13.06;100.00
9035;BME280;4552;43.422;24.592;2023-05-19T01:43:17;100088.19;;;13.22;100.00
9035;BME280;4552;43.422;24.592;2023-05-19T01:45:44;100085.56;;;13.22;100.00
9035;BME280;4552;43.422;24.592;2023-05-19T01:48:14;100093.72;;;13.48;100.00
9035;BME280;4552;43.422;24.592;2023-05-19T01:50:41;100085.94;;;13.44;100.00
9035;BME280;4552;43.422;24.592;2023-05-19T01:53:08;100088.69;;;13.39;100.00
9035;BME280;4552;43.422;24.592;2023-05-19T01:55:40;100097.19;;;13.50;100.00
9035;BME280;4552;43.422;24.592;2023-05-19T01:58:14;100098.78;;;13.57;100.00
9035;BME280;4552;43.422;24.592;2023-05-19T02:00:52;100079.81;;;13.43;100.00
9035;BME280;4552;43.422;24.592;2023-05-19T02:03:47;100088.25;;;13.19;100.00
9035;BME280;4552;43.422;24.592;2023-05-19T02:06:25;100089.09;;;13.21;100.00
9035;BME280;4552;43.422;24.592;2023-05-19T02:08:59;100087.03;;;13.35;100.00
9035;BME280;4552;43.422;24.592;2023-05-19T02:11:35;100082.94;;;13.22;100.00
9035;BME280;4552;43.422;24.592;2023-05-19T02:14:14;100108.41;;;13.20;100.00
9035;BME280;4552;43.422;24.592;2023-05-19T02:16:44;100093.47;;;13.21;100.00
9035;BME280;4552;43.422;24.592;2023-05-19T02:19:21;100103.00;;;13.26;100.00
9035;BME280;4552;43.422;24.592;2023-05-19T02:21:48;100108.72;;;13.43;100.00
9035;BME280;4552;43.422;24.592;2023-05-19T14:19:14;100140.94;;;18.42;100.00
9035;BME280;4552;43.422;24.592;2023-05-19T14:21:41;100156.50;;;18.49;98.52
9035;BME280;4552;43.422;24.592;2023-05-19T14:24:09;100160.66;;;18.56;99.74
9035;BME280;4552;43.422;24.592;2023-05-19T14:33:20;100150.63;;;18.83;93.59
9035;BME280;4552;43.422;24.592;2023-05-19T14:35:51;100151.28;;;19.08;97.22
9035;BME280;4552;43.422;24.592;2023-05-19T14:38:18;100157.38;;;19.10;97.35
9035;BME280;4552;43.422;24.592;2023-05-19T14:40:45;100152.44;;;19.21;98.71
9035;BME280;4552;43.422;24.592;2023-05-19T15:08:29;100150.50;;;19.82;89.97
9035;BME280;4552;43.422;24.592;2023-05-19T15:10:56;100156.25;;;19.91;88.35
9035;BME280;4552;43.422;24.592;2023-05-19T15:18:26;100147.50;;;20.06;85.89
9035;BME280;4552;43.422;24.592;2023-05-19T15:20:54;100159.78;;;20.27;85.68
9035;BME280;4552;43.422;24.592;2023-05-19T15:23:22;100163.38;;;20.26;85.11
9035;BME280;4552;43.422;24.592;2023-05-19T15:25:50;100168.63;;;20.45;85.18
9035;BME280;4552;43.422;24.592;2023-05-19T15:28:18;100169.81;;;20.56;85.26
9035;BME280;4552;43.422;24.592;2023-05-19T15:30:45;100176.69;;;20.60;85.24
9035;BME280;4552;43.422;24.592;2023-05-19T15:33:12;100168.22;;;20.52;87.14
9035;BME280;4552;43.422;24.592;2023-05-19T15:35:39;100164.19;;;20.63;88.39
9035;BME280;4552;43.422;24.592;2023-05-19T15:38:06;100152.91;;;20.75;90.29
9035;BME280;4552;43.422;24.592;2023-05-19T15:40:33;100167.13;;;21.25;86.36
9035;BME280;4552;43.422;24.592;2023-05-19T15:43:02;100161.22;;;21.03;86.33
9035;BME280;4552;43.422;24.592;2023-05-19T15:59:01;100173.97;;;21.61;81.79
9035;BME280;4552;43.422;24.592;2023-05-19T16:01:31;100183.81;;;21.76;79.49
9035;BME280;4552;43.422;24.592;2023-05-19T16:04:05;100202.88;;;21.53;80.36
9035;BME280;4552;43.422;24.592;2023-05-19T16:06:42;100208.34;;;21.01;81.68
9035;BME280;4552;43.422;24.592;2023-05-19T16:09:10;100216.16;;;20.87;84.79
9035;BME280;4552;43.422;24.592;2023-05-19T16:11:37;100225.59;;;20.58;81.86
9035;BME280;4552;43.422;24.592;2023-05-19T16:42:55;100208.06;;;19.04;85.58
9035;BME280;4552;43.422;24.592;2023-05-19T16:45:24;100201.75;;;19.07;87.37
9035;BME280;4552;43.422;24.592;2023-05-19T16:47:52;100195.72;;;18.83;88.45
9035;BME280;4552;43.422;24.592;2023-05-19T16:50:19;100175.81;;;18.73;90.23
9035;BME280;4552;43.422;24.592;2023-05-19T16:52:50;100177.06;;;18.44;89.83
9035;BME280;4552;43.422;24.592;2023-05-19T16:55:27;100178.50;;;18.30;91.52
9035;BME280;4552;43.422;24.592;2023-05-19T17:34:30;100358.91;;;16.20;100.00
9035;BME280;4552;43.422;24.592;2023-05-19T17:36:57;100329.38;;;16.06;100.00
9035;BME280;4552;43.422;24.592;2023-05-19T17:39:25;100337.91;;;16.15;100.00
9035;BME280;4552;43.422;24.592;2023-05-19T17:41:54;100326.41;;;16.16;100.00
9035;BME280;4552;43.422;24.592;2023-05-19T17:44:21;100343.00;;;16.21;100.00
9035;BME280;4552;43.422;24.592;2023-05-19T17:46:51;100346.75;;;16.13;100.00
9035;BME280;4552;43.422;24.592;2023-05-19T17:49:18;100361.34;;;16.26;100.00
9035;BME280;4552;43.422;24.592;2023-05-19T17:51:49;100356.31;;;16.47;100.00
9035;BME280;4552;43.422;24.592;2023-05-19T17:54:16;100342.63;;;16.33;100.00
9035;BME280;4552;43.422;24.592;2023-05-19T17:56:48;100312.53;;;16.10;100.00
9035;BME280;4552;43.422;24.592;2023-05-19T17:59:38;100316.97;;;16.09;100.00
9035;BME280;4552;43.422;24.592;2023-05-19T18:02:06;100317.47;;;16.20;100.00
9035;BME280;4552;43.422;24.592;2023-05-19T18:04:34;100311.72;;;16.35;100.00
9035;BME280;4552;43.422;24.592;2023-05-19T18:07:03;100302.59;;;16.47;100.00
9035;BME280;4552;43.422;24.592;2023-05-19T18:09:35;100283.63;;;16.33;100.00
9035;BME280;4552;43.422;24.592;2023-05-19T18:12:04;100281.41;;;16.19;100.00
9035;BME280;4552;43.422;24.592;2023-05-19T18:14:31;100290.78;;;16.29;100.00
9035;BME280;4552;43.422;24.592;2023-05-19T18:17:04;100293.28;;;16.34;100.00
9035;BME280;4552;43.422;24.592;2023-05-19T18:19:31;100274.91;;;16.29;100.00
9035;BME280;4552;43.422;24.592;2023-05-19T18:21:58;100269.03;;;16.21;100.00
9035;BME280;4552;43.422;24.592;2023-05-19T18:24:27;100219.78;;;16.19;100.00
9035;BME280;4552;43.422;24.592;2023-05-19T18:26:54;100229.94;;;16.05;100.00
9035;BME280;4552;43.422;24.592;2023-05-19T18:29:21;100229.59;;;15.88;100.00
9035;BME280;4552;43.422;24.592;2023-05-19T18:31:48;100270.72;;;15.95;100.00
9035;BME280;4552;43.422;24.592;2023-05-19T18:34:15;100260.22;;;15.64;100.00
9035;BME280;4552;43.422;24.592;2023-05-19T18:36:42;100262.84;;;15.64;100.00
9035;BME280;4552;43.422;24.592;2023-05-19T18:39:10;100262.50;;;15.76;100.00
9035;BME280;4552;43.422;24.592;2023-05-19T18:41:39;100272.91;;;15.81;100.00
9035;BME280;4552;43.422;24.592;2023-05-19T18:44:10;100278.97;;;15.84;100.00
9035;BME280;4552;43.422;24.592;2023-05-19T18:46:51;100265.91;;;15.80;100.00
9035;BME280;4552;43.422;24.592;2023-05-19T18:49:35;100274.38;;;15.91;100.00
9035;BME280;4552;43.422;24.592;2023-05-19T18:52:16;100267.59;;;15.82;100.00
9035;BME280;4552;43.422;24.592;2023-05-19T18:54:46;100273.00;;;15.78;100.00
9035;BME280;4552;43.422;24.592;2023-05-19T18:57:16;100283.16;;;15.91;100.00
9035;BME280;4552;43.422;24.592;2023-05-19T18:59:45;100266.47;;;15.91;100.00
9035;BME280;4552;43.422;24.592;2023-05-19T19:02:12;100290.03;;;15.97;100.00
9035;BME280;4552;43.422;24.592;2023-05-19T19:04:40;100291.38;;;15.81;100.00
9035;BME280;4552;43.422;24.592;2023-05-19T19:07:09;100304.63;;;15.79;100.00
9035;BME280;4552;43.422;24.592;2023-05-19T19:09:35;100294.00;;;15.82;100.00
9035;BME280;4552;43.422;24.592;2023-05-19T19:12:03;100305.34;;;15.86;100.00
9035;BME280;4552;43.422;24.592;2023-05-19T19:14:31;100299.31;;;15.81;100.00
9035;BME280;4552;43.422;24.592;2023-05-19T19:16:58;100302.13;;;15.75;100.00
9035;BME280;4552;43.422;24.592;2023-05-19T19:19:27;100308.94;;;15.83;100.00
9035;BME280;4552;43.422;24.592;2023-05-19T19:21:55;100314.22;;;15.83;100.00
9035;BME280;4552;43.422;24.592;2023-05-19T19:24:22;100323.81;;;15.86;100.00
9035;BME280;4552;43.422;24.592;2023-05-19T19:26:49;100326.31;;;15.90;100.00
9035;BME280;4552;43.422;24.592;2023-05-19T19:29:18;100324.56;;;15.91;100.00
9035;BME280;4552;43.422;24.592;2023-05-19T19:31:47;100324.59;;;15.89;100.00
9035;BME280;4552;43.422;24.592;2023-05-19T19:39:15;100340.03;;;15.72;100.00
9035;BME280;4552;43.422;24.592;2023-05-19T19:41:44;100336.19;;;15.84;100.00
9035;BME280;4552;43.422;24.592;2023-05-19T19:44:11;100314.44;;;15.76;100.00
9035;BME280;4552;43.422;24.592;2023-05-19T19:46:39;100335.66;;;15.71;100.00
9035;BME280;4552;43.422;24.592;2023-05-19T19:49:07;100340.22;;;15.66;100.00
9035;BME280;4552;43.422;24.592;2023-05-19T19:51:34;100345.00;;;15.52;100.00
9035;BME280;4552;43.422;24.592;2023-05-19T19:54:01;100362.56;;;15.53;100.00
9035;BME280;4552;43.422;24.592;2023-05-19T19:56:29;100359.56;;;15.65;100.00
9035;BME280;4552;43.422;24.592;2023-05-19T19:59:09;100373.19;;;15.50;100.00
9035;BME280;4552;43.422;24.592;2023-05-19T20:01:37;100365.59;;;15.38;100.00
9035;BME280;4552;43.422;24.592;2023-05-19T20:04:04;100368.38;;;15.32;100.00
9035;BME280;4552;43.422;24.592;2023-05-19T20:06:32;100372.09;;;15.25;100.00
9035;BME280;4552;43.422;24.592;2023-05-19T20:09:00;100370.72;;;15.44;100.00
9035;BME280;4552;43.422;24.592;2023-05-19T20:11:27;100367.53;;;15.30;100.00
9035;BME280;4552;43.422;24.592;2023-05-19T20:13:54;100357.31;;;15.18;100.00
9035;BME280;4552;43.422;24.592;2023-05-19T20:16:20;100365.28;;;15.15;100.00
9035;BME280;4552;43.422;24.592;2023-05-19T20:21:25;100357.16;;;14.89;100.00
9035;BME280;4552;43.422;24.592;2023-05-19T20:23:54;100359.13;;;14.81;100.00
9035;BME280;4552;43.422;24.592;2023-05-19T20:26:21;100343.59;;;14.69;100.00
9035;BME280;4552;43.422;24.592;2023-05-19T20:35:33;100347.84;;;14.76;100.00
9035;BME280;4552;43.422;24.592;2023-05-19T20:38:00;100358.25;;;14.80;100.00
9035;BME280;4552;43.422;24.592;2023-05-19T20:40:28;100331.34;;;14.68;100.00
9035;BME280;4552;43.422;24.592;2023-05-19T20:42:55;100349.59;;;14.75;100.00
9035;BME280;4552;43.422;24.592;2023-05-19T20:45:22;100348.72;;;14.75;100.00
9035;BME280;4552;43.422;24.592;2023-05-19T20:47:49;100350.69;;;14.67;100.00
9035;BME280;4552;43.422;24.592;2023-05-19T20:50:16;100362.81;;;14.74;100.00
9035;BME280;4552;43.422;24.592;2023-05-19T20:52:43;100359.47;;;14.66;100.00
9035;BME280;4552;43.422;24.592;2023-05-19T21:03:11;100352.34;;;14.71;100.00
9035;BME280;4552;43.422;24.592;2023-05-19T21:05:40;100354.13;;;14.69;100.00
9035;BME280;4552;43.422;24.592;2023-05-19T21:08:07;100345.97;;;14.81;100.00
9035;BME280;4552;43.422;24.592;2023-05-19T21:10:37;100356.03;;;14.64;100.00
9035;BME280;4552;43.422;24.592;2023-05-19T21:23:10;100347.44;;;14.56;100.00
9035;BME280;4552;43.422;24.592;2023-05-19T21:28:05;100375.13;;;14.72;100.00
9035;BME280;4552;43.422;24.592;2023-05-19T21:30:32;100378.47;;;14.80;100.00
9035;BME280;4552;43.422;24.592;2023-05-19T21:33:01;100372.28;;;14.82;100.00
9035;BME280;4552;43.422;24.592;2023-05-19T21:35:29;100384.28;;;14.94;100.00
9035;BME280;4552;43.422;24.592;2023-05-19T21:37:56;100369.06;;;14.70;100.00
9035;BME280;4552;43.422;24.592;2023-05-19T21:40:25;100364.75;;;14.66;100.00
9035;BME280;4552;43.422;24.592;2023-05-19T21:42:52;100391.16;;;14.63;100.00
9035;BME280;4552;43.422;24.592;2023-05-19T21:45:19;100370.56;;;14.42;100.00
9035;BME280;4552;43.422;24.592;2023-05-19T21:47:46;100391.25;;;14.60;100.00
9035;BME280;4552;43.422;24.592;2023-05-19T21:50:14;100378.81;;;14.27;100.00
9035;BME280;4552;43.422;24.592;2023-05-19T22:06:20;100365.88;;;14.15;100.00
9035;BME280;4552;43.422;24.592;2023-05-19T22:08:47;100355.34;;;14.15;100.00
9035;BME280;4552;43.422;24.592;2023-05-19T22:11:14;100343.94;;;14.14;100.00
9035;BME280;4552;43.422;24.592;2023-05-19T22:13:42;100358.88;;;14.15;100.00
9035;BME280;4552;43.422;24.592;2023-05-19T22:16:09;100349.13;;;14.19;100.00
9035;BME280;4552;43.422;24.592;2023-05-19T22:18:36;100344.38;;;14.36;100.00
9035;BME280;4552;43.422;24.592;2023-05-19T22:21:03;100352.50;;;14.27;100.00
9035;BME280;4552;43.422;24.592;2023-05-19T22:23:32;100349.84;;;14.27;100.00
9035;BME280;4552;43.422;24.592;2023-05-19T22:25:58;100341.28;;;14.16;100.00
9035;BME280;4552;43.422;24.592;2023-05-19T22:28:26;100345.59;;;14.20;100.00
9035;BME280;4552;43.422;24.592;2023-05-19T22:30:53;100343.09;;;14.14;100.00
9035;BME280;4552;43.422;24.592;2023-05-19T22:33:20;100331.03;;;14.04;100.00
9035;BME280;4552;43.422;24.592;2023-05-19T22:35:47;100333.88;;;13.93;100.00
9035;BME280;4552;43.422;24.592;2023-05-19T22:38:14;100338.47;;;13.83;100.00
9035;BME280;4552;43.422;24.592;2023-05-19T22:40:42;100321.75;;;13.86;100.00
9035;BME280;4552;43.422;24.592;2023-05-19T22:43:13;100328.00;;;13.80;100.00
9035;BME280;4552;43.422;24.592;2023-05-19T22:45:40;100314.88;;;13.79;100.00
9035;BME280;4552;43.422;24.592;2023-05-19T22:48:07;100309.97;;;13.62;100.00
9035;BME280;4552;43.422;24.592;2023-05-19T22:50:34;100314.31;;;13.63;100.00
9035;BME280;4552;43.422;24.592;2023-05-19T22:53:01;100310.81;;;13.64;100.00
9035;BME280;4552;43.422;24.592;2023-05-19T22:55:28;100326.59;;;13.64;100.00
9035;BME280;4552;43.422;24.592;2023-05-19T22:57:56;100325.38;;;13.80;100.00
9035;BME280;4552;43.422;24.592;2023-05-19T23:00:23;100329.91;;;13.72;100.00
9035;BME280;4552;43.422;24.592;2023-05-19T23:02:50;100333.56;;;13.65;100.00
9035;BME280;4552;43.422;24.592;2023-05-19T23:05:17;100330.47;;;13.88;100.00
9035;BME280;4552;43.422;24.592;2023-05-19T23:07:44;100327.06;;;13.84;100.00
9035;BME280;4552;43.422;24.592;2023-05-19T23:10:10;100321.19;;;13.70;100.00
9035;BME280;4552;43.422;24.592;2023-05-19T23:12:37;100327.50;;;13.62;100.00
9035;BME280;4552;43.422;24.592;2023-05-19T23:15:07;100323.47;;;13.44;100.00
9035;BME280;4552;43.422;24.592;2023-05-19T23:17:34;100330.63;;;13.36;100.00
9035;BME280;4552;43.422;24.592;2023-05-19T23:20:01;100326.91;;;13.46;100.00
9035;BME280;4552;43.422;24.592;2023-05-19T23:22:28;100330.09;;;13.63;100.00
9035;BME280;4552;43.422;24.592;2023-05-19T23:24:55;100326.00;;;13.50;100.00
9035;BME280;4552;43.422;24.592;2023-05-19T23:27:22;100325.22;;;13.44;100.00
9035;BME280;4552;43.422;24.592;2023-05-19T23:29:50;100324.47;;;13.37;100.00
9035;BME280;4552;43.422;24.592;2023-05-19T23:32:18;100320.16;;;13.35;100.00
9035;BME280;4552;43.422;24.592;2023-05-19T23:34:46;100322.88;;;13.29;100.00
9035;BME280;4552;43.422;24.592;2023-05-19T23:37:13;100308.97;;;13.22;100.00
9035;BME280;4552;43.422;24.592;2023-05-19T23:39:40;100315.81;;;13.32;100.00
9035;BME280;4552;43.422;24.592;2023-05-19T23:42:07;100307.88;;;13.35;100.00
9035;BME280;4552;43.422;24.592;2023-05-19T23:44:34;100304.53;;;13.27;100.00
9035;BME280;4552;43.422;24.592;2023-05-19T23:47:01;100293.81;;;13.36;100.00
9035;BME280;4552;43.422;24.592;2023-05-19T23:49:29;100298.31;;;13.30;100.00
9035;BME280;4552;43.422;24.592;2023-05-19T23:51:56;100307.34;;;13.17;100.00
9035;BME280;4552;43.422;24.592;2023-05-19T23:54:23;100309.09;;;13.16;100.00
9035;BME280;4552;43.422;24.592;2023-05-19T23:56:51;100313.78;;;13.48;100.00
9035;BME280;4552;43.422;24.592;2023-05-19T23:59:18;100305.94;;;13.43;100.00
